createdAt,value
2018-03-28T00:02:05.941Z,16.20
2018-03-28T00:04:41.292Z,16.20
2018-03-28T00:07:25.028Z,16.20
2018-03-28T00:10:03.336Z,16.20
2018-03-28T00:12:30.856Z,16.20
2018-03-28T00:15:09.221Z,16.10
2018-03-28T00:17:46.567Z,16.20
2018-03-28T00:20:26.427Z,16.10
2018-03-28T00:23:02.309Z,16.10
2018-03-28T00:25:29.827Z,16.10
2018-03-28T00:28:05.367Z,16.10
2018-03-28T00:30:34.617Z,16.10
2018-03-28T00:33:18.800Z,16.10
2018-03-28T00:35:55.453Z,16.10
2018-03-28T00:38:26.394Z,16.10
2018-03-28T00:41:02.926Z,16.00
2018-03-28T00:43:30.725Z,16.00
2018-03-28T00:46:05.155Z,16.00
2018-03-28T00:48:32.671Z,16.00
2018-03-28T00:51:24.580Z,16.00
2018-03-28T00:54:04.996Z,16.00
2018-03-28T00:56:32.478Z,16.00
2018-03-28T00:59:09.320Z,16.00
2018-03-28T01:01:48.999Z,15.90
2018-03-28T01:04:25.285Z,15.90
2018-03-28T01:07:03.901Z,16.00
2018-03-28T01:09:31.481Z,15.90
2018-03-28T01:12:05.578Z,16.00
2018-03-28T01:14:33.768Z,15.90
2018-03-28T01:17:04.325Z,15.90
2018-03-28T01:19:31.963Z,15.90
2018-03-28T01:22:07.144Z,15.90
2018-03-28T01:24:42.999Z,15.90
2018-03-28T01:27:22.193Z,15.90
2018-03-28T01:29:54.296Z,15.90
2018-03-28T01:32:29.820Z,15.90
2018-03-28T01:35:05.686Z,15.90
2018-03-28T01:37:35.527Z,15.90
2018-03-28T01:40:05.684Z,15.90
2018-03-28T01:42:34.941Z,15.90
2018-03-28T01:45:08.657Z,15.80
2018-03-28T01:47:42.736Z,15.80
2018-03-28T01:50:24.552Z,15.80
2018-03-28T01:53:03.620Z,15.80
2018-03-28T01:55:31.104Z,15.80
2018-03-28T01:58:06.317Z,15.80
2018-03-28T02:00:33.825Z,15.80
2018-03-28T02:03:06.552Z,15.80
2018-03-28T02:05:44.796Z,15.80
2018-03-28T02:08:18.472Z,15.80
2018-03-28T02:10:56.105Z,15.70
2018-03-28T02:13:26.810Z,15.70
2018-03-28T02:16:02.529Z,15.80
2018-03-28T02:18:30.786Z,15.70
2018-03-28T02:21:04.112Z,15.70
2018-03-28T02:23:32.372Z,15.70
2018-03-28T02:26:04.199Z,15.70
2018-03-28T02:28:35.866Z,15.70
2018-03-28T02:31:12.400Z,15.70
2018-03-28T02:33:52.260Z,15.70
2018-03-28T02:36:26.547Z,15.70
2018-03-28T02:39:05.615Z,15.70
2018-03-28T02:41:33.265Z,15.70
2018-03-28T02:44:06.856Z,15.70
2018-03-28T02:46:41.155Z,15.60
2018-03-28T02:49:20.024Z,15.60
2018-03-28T02:51:59.349Z,15.60
2018-03-28T02:54:28.939Z,15.60
2018-03-28T02:57:08.705Z,15.60
2018-03-28T02:59:43.554Z,15.60
2018-03-28T03:02:21.768Z,15.60
2018-03-28T03:05:00.947Z,15.60
2018-03-28T03:07:31.565Z,15.60
2018-03-28T03:10:06.035Z,15.60
2018-03-28T03:12:33.524Z,15.60
2018-03-28T03:15:05.113Z,15.60
2018-03-28T03:17:33.363Z,15.50
2018-03-28T03:20:04.735Z,15.60
2018-03-28T03:22:32.214Z,15.50
2018-03-28T03:25:06.717Z,15.50
2018-03-28T03:27:40.769Z,15.50
2018-03-28T03:35:30.447Z,15.50
2018-03-28T03:38:10.293Z,15.50
2018-03-28T03:40:47.687Z,15.50
2018-03-28T03:43:24.240Z,15.50
2018-03-28T03:46:04.133Z,15.50
2018-03-28T03:48:32.483Z,15.40
2018-03-28T03:51:05.652Z,15.40
2018-03-28T03:53:50.953Z,15.40
2018-03-28T03:59:07.512Z,15.50
2018-03-28T04:01:42.198Z,15.40
2018-03-28T04:04:09.763Z,15.40
2018-03-28T04:06:52.429Z,15.40
2018-03-28T04:09:27.698Z,15.40
2018-03-28T04:12:05.243Z,15.40
2018-03-28T04:14:35.232Z,15.40
2018-03-28T04:17:08.744Z,15.40
2018-03-28T04:19:43.767Z,15.40
2018-03-28T04:22:23.955Z,15.40
2018-03-28T04:24:55.750Z,15.40
2018-03-28T04:27:35.962Z,15.30
2018-03-28T04:30:09.066Z,15.30
2018-03-28T04:32:44.691Z,15.30
2018-03-28T04:35:26.794Z,15.30
2018-03-28T04:38:03.424Z,15.30
2018-03-28T04:40:31.968Z,15.30
2018-03-28T04:43:08.264Z,15.30
2018-03-28T04:45:43.333Z,15.30
2018-03-28T04:48:20.035Z,15.40
2018-03-28T04:51:05.021Z,15.40
2018-03-28T04:53:32.518Z,15.40
2018-03-28T04:56:03.600Z,15.50
2018-03-28T04:58:31.360Z,15.50
2018-03-28T05:01:09.453Z,15.60
2018-03-28T05:03:44.175Z,15.60
2018-03-28T05:06:24.167Z,15.70
2018-03-28T05:08:54.093Z,15.80
2018-03-28T05:11:31.188Z,15.90
2018-03-28T05:14:07.802Z,15.90
2018-03-28T05:16:44.882Z,15.90
2018-03-28T05:19:24.620Z,15.90
2018-03-28T05:21:52.103Z,16.00
2018-03-28T05:24:25.449Z,16.10
2018-03-28T05:27:00.358Z,16.30
2018-03-28T05:29:28.611Z,16.40
2018-03-28T05:32:06.145Z,16.30
2018-03-28T05:34:57.977Z,16.50
2018-03-28T05:37:44.257Z,16.50
2018-03-28T05:40:27.544Z,16.60
2018-03-28T05:43:06.823Z,16.70
2018-03-28T05:45:34.488Z,16.70
2018-03-28T05:48:08.755Z,16.80
2018-03-28T05:50:44.931Z,16.90
2018-03-28T05:53:20.464Z,17.00
2018-03-28T05:55:56.672Z,17.00
2018-03-28T05:58:28.103Z,17.10
2018-03-28T06:01:07.294Z,17.20
2018-03-28T06:03:43.158Z,17.20
2018-03-28T06:06:23.910Z,17.20
2018-03-28T06:09:03.060Z,17.30
2018-03-28T06:11:31.223Z,17.30
2018-03-28T06:14:09.169Z,17.30
2018-03-28T06:16:46.707Z,17.40
2018-03-28T06:22:05.621Z,17.50
2018-03-28T06:24:33.202Z,17.50
2018-03-28T06:27:01.569Z,17.50
2018-03-28T06:29:29.091Z,17.50
2018-03-28T06:31:56.590Z,17.50
2018-03-28T06:34:24.158Z,17.50
2018-03-28T06:36:51.726Z,17.50
2018-03-28T06:39:19.219Z,17.50
2018-03-28T06:41:47.577Z,17.50
2018-03-28T06:44:15.149Z,17.50
2018-03-28T06:46:42.654Z,17.50
2018-03-28T06:49:10.191Z,17.50
2018-03-28T06:51:37.676Z,17.50
2018-03-28T06:54:05.170Z,17.50
2018-03-28T06:56:32.666Z,17.50
2018-03-28T06:59:00.157Z,17.60
2018-03-28T07:01:28.500Z,17.60
2018-03-28T07:03:56.001Z,17.60
2018-03-28T07:06:24.269Z,17.70
2018-03-28T07:08:51.817Z,17.70
2018-03-28T07:11:19.400Z,17.70
2018-03-28T07:13:46.907Z,17.80
2018-03-28T07:16:14.446Z,17.80
2018-03-28T07:18:41.892Z,17.90
2018-03-28T07:21:09.389Z,17.90
2018-03-28T07:23:36.885Z,18.00
2018-03-28T07:26:04.498Z,18.00
2018-03-28T07:28:32.750Z,18.10
2018-03-28T07:31:00.241Z,18.10
2018-03-28T07:33:28.486Z,18.20
2018-03-28T07:35:56.079Z,18.20
2018-03-28T07:38:23.566Z,18.20
2018-03-28T07:40:51.922Z,18.30
2018-03-28T07:43:19.417Z,18.20
2018-03-28T07:45:47.673Z,18.30
2018-03-28T07:48:15.224Z,18.30
2018-03-28T07:50:42.789Z,18.30
2018-03-28T07:53:10.355Z,18.40
2018-03-28T07:55:37.928Z,18.40
2018-03-28T07:58:05.421Z,18.40
2018-03-28T08:00:33.791Z,18.50
2018-03-28T08:03:01.324Z,18.50
2018-03-28T08:05:28.816Z,18.50
2018-03-28T08:07:57.199Z,18.50
2018-03-28T08:10:24.692Z,18.50
2018-03-28T08:12:52.201Z,18.60
2018-03-28T08:15:19.787Z,18.60
2018-03-28T08:17:47.346Z,18.60
2018-03-28T08:20:14.929Z,18.60
2018-03-28T08:22:42.443Z,18.70
2018-03-28T08:25:09.936Z,18.70
2018-03-28T08:27:37.468Z,18.70
2018-03-28T08:30:04.955Z,18.70
2018-03-28T08:32:32.451Z,18.70
2018-03-28T08:34:59.935Z,18.80
2018-03-28T08:37:27.458Z,18.80
2018-03-28T08:39:55.036Z,18.80
2018-03-28T08:42:22.609Z,18.80
2018-03-28T08:44:50.174Z,18.80
2018-03-28T08:47:17.684Z,18.80
2018-03-28T08:49:45.286Z,18.80
2018-03-28T08:52:12.794Z,18.80
2018-03-28T08:54:40.323Z,18.80
2018-03-28T08:57:07.806Z,18.80
2018-03-28T08:59:36.109Z,18.90
2018-03-28T09:02:03.603Z,18.90
2018-03-28T09:04:31.203Z,18.90
2018-03-28T09:06:58.764Z,19.00
2018-03-28T09:09:26.264Z,19.00
2018-03-28T09:11:54.535Z,19.00
2018-03-28T09:14:22.897Z,19.00
2018-03-28T09:16:50.421Z,19.00
2018-03-28T09:19:17.909Z,19.00
2018-03-28T09:21:45.496Z,19.00
2018-03-28T09:24:13.032Z,19.10
2018-03-28T09:26:40.654Z,19.10
2018-03-28T09:29:08.158Z,19.20
2018-03-28T09:31:35.811Z,19.20
2018-03-28T09:34:04.181Z,19.20
2018-03-28T09:36:31.700Z,19.20
2018-03-28T09:38:59.190Z,19.20
2018-03-28T09:41:27.452Z,19.20
2018-03-28T09:43:54.960Z,19.20
2018-03-28T09:46:22.447Z,19.20
2018-03-28T09:48:50.041Z,19.20
2018-03-28T09:51:17.548Z,19.20
2018-03-28T09:53:45.109Z,19.20
2018-03-28T09:56:12.641Z,19.20
2018-03-28T09:58:40.140Z,19.30
2018-03-28T10:01:08.385Z,19.30
2018-03-28T10:03:42.371Z,19.30
2018-03-28T10:06:09.882Z,19.30
2018-03-28T10:08:38.246Z,19.40
2018-03-28T10:11:05.731Z,19.40
2018-03-28T10:13:34.098Z,19.50
2018-03-28T10:16:01.603Z,19.50
2018-03-28T10:18:29.109Z,19.50
2018-03-28T10:20:56.604Z,19.60
2018-03-28T10:23:24.861Z,19.60
2018-03-28T10:25:52.435Z,19.60
2018-03-28T10:28:20.002Z,19.60
2018-03-28T10:30:47.515Z,19.60
2018-03-28T10:33:15.009Z,19.70
2018-03-28T10:35:42.503Z,19.70
2018-03-28T10:38:10.874Z,19.70
2018-03-28T10:40:38.372Z,19.70
2018-03-28T10:43:06.646Z,19.70
2018-03-28T10:45:34.890Z,19.70
2018-03-28T10:48:02.465Z,19.70
2018-03-28T10:50:29.999Z,19.70
2018-03-28T10:52:57.545Z,19.70
2018-03-28T10:55:25.091Z,19.70
2018-03-28T10:57:53.355Z,19.60
2018-03-28T11:00:20.862Z,19.60
2018-03-28T11:02:48.355Z,19.60
2018-03-28T11:05:15.842Z,19.60
2018-03-28T11:07:43.377Z,19.50
2018-03-28T11:10:10.871Z,19.50
2018-03-28T11:12:38.427Z,19.50
2018-03-28T11:15:05.929Z,19.50
2018-03-28T11:17:34.283Z,19.50
2018-03-28T11:20:01.798Z,19.40
2018-03-28T11:22:29.295Z,19.40
2018-03-28T11:24:56.799Z,19.40
2018-03-28T11:27:25.199Z,19.30
2018-03-28T11:29:52.720Z,19.30
2018-03-28T11:32:20.293Z,19.30
2018-03-28T11:34:47.801Z,19.40
2018-03-28T11:37:15.314Z,19.40
2018-03-28T11:39:42.825Z,19.40
2018-03-28T11:42:10.319Z,19.40
2018-03-28T11:44:37.908Z,19.50
2018-03-28T11:47:05.420Z,19.50
2018-03-28T11:49:32.922Z,19.50
2018-03-28T11:52:00.425Z,19.50
2018-03-28T11:54:28.689Z,19.50
2018-03-28T11:56:56.204Z,19.50
2018-03-28T11:59:23.721Z,19.50
2018-03-28T12:01:51.225Z,19.50
2018-03-28T12:04:18.759Z,19.50
2018-03-28T12:06:46.252Z,19.50
2018-03-28T12:09:13.872Z,19.50
2018-03-28T12:11:41.351Z,19.50
2018-03-28T12:14:09.767Z,19.50
2018-03-28T12:16:37.273Z,19.50
2018-03-28T12:19:04.853Z,19.50
2018-03-28T12:21:32.412Z,19.60
2018-03-28T12:23:59.923Z,19.60
2018-03-28T12:26:27.469Z,19.60
2018-03-28T12:28:54.928Z,19.60
2018-03-28T12:31:23.323Z,19.60
2018-03-28T12:33:51.678Z,19.60
2018-03-28T12:36:19.189Z,19.60
2018-03-28T12:38:46.729Z,19.60
2018-03-28T12:41:14.988Z,19.60
2018-03-28T12:43:42.489Z,19.60
2018-03-28T12:46:10.020Z,19.60
2018-03-28T12:48:37.556Z,19.60
2018-03-28T12:51:05.054Z,19.60
2018-03-28T12:53:32.609Z,19.60
2018-03-28T12:56:00.132Z,19.60
2018-03-28T12:58:27.654Z,19.60
2018-03-28T13:00:55.157Z,19.60
2018-03-28T13:03:22.678Z,19.60
2018-03-28T13:05:50.190Z,19.60
2018-03-28T13:08:17.720Z,19.60
2018-03-28T13:10:46.003Z,19.50
2018-03-28T13:13:13.501Z,19.50
2018-03-28T13:15:40.987Z,19.50
2018-03-28T13:18:08.503Z,19.40
2018-03-28T13:20:36.866Z,19.30
2018-03-28T13:23:04.396Z,19.30
2018-03-28T13:25:31.997Z,19.40
2018-03-28T13:27:59.485Z,19.30
2018-03-28T13:30:27.747Z,19.30
2018-03-28T13:32:55.255Z,19.30
2018-03-28T13:35:22.774Z,19.30
2018-03-28T13:37:50.290Z,19.30
2018-03-28T13:40:17.792Z,19.30
2018-03-28T13:42:45.294Z,19.30
2018-03-28T13:45:12.838Z,19.30
2018-03-28T13:47:40.391Z,19.30
2018-03-28T13:50:07.965Z,19.40
2018-03-28T13:52:35.602Z,19.40
2018-03-28T13:55:03.095Z,19.40
2018-03-28T13:57:30.606Z,19.40
2018-03-28T13:59:58.128Z,19.40
2018-03-28T14:02:25.705Z,19.40
2018-03-28T14:04:54.011Z,19.40
2018-03-28T14:07:21.498Z,19.40
2018-03-28T14:09:49.092Z,19.40
2018-03-28T14:12:16.648Z,19.40
2018-03-28T14:14:44.141Z,19.40
2018-03-28T14:17:12.436Z,19.40
2018-03-28T14:19:40.732Z,19.40
2018-03-28T14:22:08.231Z,19.40
2018-03-28T14:24:35.737Z,19.40
2018-03-28T14:27:04.116Z,19.50
2018-03-28T14:29:32.390Z,19.50
2018-03-28T14:31:59.916Z,19.50
2018-03-28T14:34:27.417Z,19.50
2018-03-28T14:36:54.955Z,19.50
2018-03-28T14:39:22.459Z,19.50
2018-03-28T14:41:50.740Z,19.50
2018-03-28T14:44:18.256Z,19.50
2018-03-28T14:46:45.755Z,19.60
2018-03-28T14:49:14.036Z,19.60
2018-03-28T14:51:41.531Z,19.60
2018-03-28T14:54:09.506Z,19.60
2018-03-28T14:56:37.867Z,19.60
2018-03-28T14:59:05.352Z,19.60
2018-03-28T15:01:33.621Z,19.60
2018-03-28T15:04:01.991Z,19.60
2018-03-28T15:06:29.472Z,19.60
2018-03-28T15:08:57.740Z,19.50
2018-03-28T15:11:25.247Z,19.50
2018-03-28T15:13:52.912Z,19.50
2018-03-28T15:16:21.271Z,19.40
2018-03-28T15:18:49.665Z,19.40
2018-03-28T15:21:18.127Z,19.40
2018-03-28T15:23:46.384Z,19.40
2018-03-28T15:26:13.975Z,19.40
2018-03-28T15:28:41.579Z,19.40
2018-03-28T15:31:09.265Z,19.30
2018-03-28T15:33:37.212Z,19.30
2018-03-28T15:36:05.503Z,19.30
2018-03-28T15:38:32.998Z,19.20
2018-03-28T15:41:00.503Z,19.30
2018-03-28T15:43:27.997Z,19.30
2018-03-28T15:45:55.490Z,19.30
2018-03-28T15:48:22.996Z,19.30
2018-03-28T15:50:50.525Z,19.30
2018-03-28T15:53:18.028Z,19.30
2018-03-28T15:55:46.282Z,19.30
2018-03-28T15:58:13.786Z,19.30
2018-03-28T16:00:42.149Z,19.40
2018-03-28T16:03:09.702Z,19.30
2018-03-28T16:05:37.292Z,19.40
2018-03-28T16:08:05.554Z,19.40
2018-03-28T16:10:33.137Z,19.40
2018-03-28T16:13:00.697Z,19.40
2018-03-28T16:15:28.253Z,19.40
2018-03-28T16:17:56.762Z,19.40
2018-03-28T16:20:25.026Z,19.50
2018-03-28T16:22:52.535Z,19.40
2018-03-28T16:25:20.052Z,19.50
2018-03-28T16:27:47.621Z,19.50
2018-03-28T16:30:15.227Z,19.50
2018-03-28T16:32:42.728Z,19.50
2018-03-28T16:35:10.247Z,19.50
2018-03-28T16:37:37.744Z,19.40
2018-03-28T16:40:05.256Z,19.40
2018-03-28T16:42:32.824Z,19.30
2018-03-28T16:45:01.076Z,19.40
2018-03-28T16:47:28.656Z,19.30
2018-03-28T16:49:56.250Z,19.30
2018-03-28T16:52:24.530Z,19.30
2018-03-28T16:54:52.794Z,19.30
2018-03-28T16:57:20.280Z,19.40
2018-03-28T16:59:47.802Z,19.40
2018-03-28T17:02:15.615Z,19.40
2018-03-28T17:04:44.009Z,19.40
2018-03-28T17:07:11.483Z,19.40
2018-03-28T17:09:39.002Z,19.40
2018-03-28T17:12:06.566Z,19.30
2018-03-28T17:14:34.083Z,19.40
2018-03-28T17:17:01.615Z,19.30
2018-03-28T17:19:29.953Z,19.30
2018-03-28T17:21:57.450Z,19.30
2018-03-28T17:24:25.733Z,19.20
2018-03-28T17:26:53.296Z,19.20
2018-03-28T17:29:20.855Z,19.20
2018-03-28T17:31:48.559Z,19.20
2018-03-28T17:34:16.085Z,19.20
2018-03-28T17:36:43.570Z,19.20
2018-03-28T17:39:12.646Z,19.20
2018-03-28T17:41:40.223Z,19.20
2018-03-28T17:44:07.682Z,19.20
2018-03-28T17:46:35.199Z,19.20
2018-03-28T17:49:02.734Z,19.10
2018-03-28T17:51:30.277Z,19.10
2018-03-28T17:53:57.843Z,19.10
2018-03-28T17:56:25.402Z,19.20
2018-03-28T17:58:53.933Z,19.20
2018-03-28T18:01:21.481Z,19.10
2018-03-28T18:03:49.754Z,19.20
2018-03-28T18:06:18.139Z,19.20
2018-03-28T18:08:46.416Z,19.20
2018-03-28T18:11:13.922Z,19.20
2018-03-28T18:13:41.431Z,19.20
2018-03-28T18:16:09.039Z,19.20
2018-03-28T18:18:36.584Z,19.20
2018-03-28T18:21:04.866Z,19.20
2018-03-28T18:23:33.142Z,19.20
2018-03-28T18:26:00.676Z,19.20
2018-03-28T18:28:28.284Z,19.20
2018-03-28T18:30:56.688Z,19.20
2018-03-28T18:33:24.236Z,19.20
2018-03-28T18:35:52.540Z,19.10
2018-03-28T18:38:20.079Z,19.10
2018-03-28T18:40:48.368Z,19.10
2018-03-28T18:43:16.661Z,19.10
2018-03-28T18:45:44.194Z,19.10
2018-03-28T18:48:12.501Z,19.10
2018-03-28T18:50:40.901Z,19.00
2018-03-28T18:53:08.429Z,19.00
2018-03-28T18:55:35.996Z,19.00
2018-03-28T18:58:03.546Z,19.10
2018-03-28T19:00:31.113Z,19.10
2018-03-28T19:02:58.656Z,19.10
2018-03-28T19:05:26.171Z,19.10
2018-03-28T19:07:54.559Z,19.10
2018-03-28T19:10:23.805Z,19.10
2018-03-28T19:12:51.446Z,19.10
2018-03-28T19:15:19.018Z,19.00
2018-03-28T19:17:46.582Z,18.90
2018-03-28T19:20:14.164Z,18.90
2018-03-28T19:22:41.845Z,18.90
2018-03-28T19:25:09.605Z,18.90
2018-03-28T19:27:37.286Z,18.90
2018-03-28T19:30:05.359Z,18.90
2018-03-28T19:32:33.228Z,18.90
2018-03-28T19:35:00.900Z,19.00
2018-03-28T19:37:28.501Z,19.00
2018-03-28T19:39:56.072Z,19.00
2018-03-28T19:42:23.979Z,19.00
2018-03-28T19:44:51.521Z,19.00
2018-03-28T19:47:19.958Z,19.00
2018-03-28T19:49:48.538Z,19.00
2018-03-28T19:52:17.920Z,19.00
2018-03-28T19:54:45.809Z,19.00
2018-03-28T19:57:13.686Z,19.00
2018-03-28T19:59:41.283Z,18.90
2018-03-28T20:02:08.897Z,18.90
2018-03-28T20:04:36.508Z,18.90
2018-03-28T20:07:04.078Z,18.80
2018-03-28T20:09:31.815Z,18.80
2018-03-28T20:11:59.439Z,18.70
2018-03-28T20:14:27.819Z,18.60
2018-03-28T20:16:55.370Z,18.60
2018-03-28T20:19:23.019Z,18.60
2018-03-28T20:21:51.450Z,18.50
2018-03-28T20:24:19.901Z,18.40
2018-03-28T20:26:47.548Z,18.40
2018-03-28T20:29:15.207Z,18.40
2018-03-28T20:31:42.740Z,18.30
2018-03-28T20:34:11.170Z,18.30
2018-03-28T20:36:38.827Z,18.30
2018-03-28T20:39:06.503Z,18.20
2018-03-28T20:41:34.153Z,18.20
2018-03-28T20:44:01.750Z,18.20
2018-03-28T20:46:29.302Z,18.10
2018-03-28T20:48:56.839Z,18.10
2018-03-28T20:51:24.369Z,18.10
2018-03-28T20:53:51.896Z,18.10
2018-03-28T20:56:19.425Z,18.00
2018-03-28T20:58:47.749Z,18.00
2018-03-28T21:01:15.361Z,18.00
2018-03-28T21:03:43.634Z,17.90
2018-03-28T21:06:11.187Z,17.90
2018-03-28T21:08:38.728Z,17.90
2018-03-28T21:11:07.099Z,17.80
2018-03-28T21:13:34.633Z,17.80
2018-03-28T21:16:03.551Z,17.80
2018-03-28T21:18:31.118Z,17.80
2018-03-28T21:20:58.648Z,17.70
2018-03-28T21:23:27.167Z,17.70
2018-03-28T21:25:54.831Z,17.70
2018-03-28T21:28:22.806Z,17.70
2018-03-28T21:30:50.607Z,17.60
2018-03-28T21:33:18.137Z,17.60
2018-03-28T21:35:46.821Z,17.60
2018-03-28T21:38:15.326Z,17.50
2018-03-28T21:40:43.401Z,17.50
2018-03-28T21:43:10.967Z,17.50
2018-03-28T21:45:38.838Z,17.50
2018-03-28T21:48:06.511Z,17.40
2018-03-28T21:50:34.480Z,17.40
2018-03-28T21:53:02.600Z,17.40
2018-03-28T21:55:31.090Z,17.40
2018-03-28T21:57:59.148Z,17.30
2018-03-28T22:00:27.209Z,17.30
2018-03-28T22:02:55.999Z,17.30
2018-03-28T22:05:24.178Z,17.30
2018-03-28T22:07:52.044Z,17.30
2018-03-28T22:10:19.609Z,17.30
2018-03-28T22:12:48.029Z,17.20
2018-03-28T22:15:15.668Z,17.20
2018-03-28T22:17:43.206Z,17.20
2018-03-28T22:20:11.514Z,17.20
2018-03-28T22:22:39.056Z,17.10
2018-03-28T22:25:07.761Z,17.10
2018-03-28T22:27:36.045Z,17.10
2018-03-28T22:30:03.655Z,17.10
2018-03-28T22:32:31.147Z,17.10
2018-03-28T22:34:58.675Z,17.10
2018-03-28T22:37:26.230Z,17.10
2018-03-28T22:39:53.756Z,17.00
2018-03-28T22:42:22.861Z,17.00
2018-03-28T22:44:51.232Z,17.00
2018-03-28T22:47:18.839Z,17.00
2018-03-28T22:49:46.443Z,17.00
2018-03-28T22:52:13.942Z,17.00
2018-03-28T22:54:42.205Z,16.90
2018-03-28T22:57:09.768Z,16.90
2018-03-28T22:59:38.860Z,16.90
2018-03-28T23:02:06.424Z,16.90
2018-03-28T23:04:34.002Z,16.80
2018-03-28T23:07:01.518Z,16.80
2018-03-28T23:09:29.015Z,16.80
2018-03-28T23:11:56.525Z,16.80
2018-03-28T23:14:24.028Z,16.80
2018-03-28T23:16:51.623Z,16.70
2018-03-28T23:19:19.112Z,16.70
2018-03-28T23:21:47.520Z,16.70
2018-03-28T23:24:15.017Z,16.70
2018-03-28T23:26:42.796Z,16.70
2018-03-28T23:29:10.316Z,16.60
2018-03-28T23:31:37.806Z,16.60
2018-03-28T23:34:05.293Z,16.60
2018-03-28T23:36:32.860Z,16.60
2018-03-28T23:39:00.427Z,16.60
2018-03-28T23:41:27.990Z,16.60
2018-03-28T23:43:55.496Z,16.50
2018-03-28T23:46:22.988Z,16.50
2018-03-28T23:48:50.485Z,16.50
2018-03-28T23:51:17.981Z,16.50
2018-03-28T23:53:46.238Z,16.50
2018-03-28T23:56:15.362Z,16.40
2018-03-28T23:58:42.834Z,16.50
